createdAt,value
2023-08-05T00:02:03.777Z,52.99
2023-08-05T00:04:30.922Z,52.36
2023-08-05T00:06:57.920Z,51.35
2023-08-05T00:09:25.017Z,51.12
2023-08-05T00:11:51.998Z,51.37
2023-08-05T00:14:19.061Z,51.13
2023-08-05T00:16:46.118Z,51.61
2023-08-05T00:19:14.529Z,52.03
2023-08-05T00:21:42.291Z,52.24
2023-08-05T00:24:09.295Z,51.97
2023-08-05T00:26:36.455Z,52.38
2023-08-05T00:29:03.507Z,53.04
2023-08-05T00:31:31.051Z,52.95
2023-08-05T00:33:58.390Z,52.52
2023-08-05T00:36:25.679Z,52.51
2023-08-05T00:38:52.812Z,52.35
2023-08-05T00:41:20.232Z,52.07
2023-08-05T00:43:47.394Z,51.77
2023-08-05T00:46:15.290Z,52.01
2023-08-05T00:48:42.448Z,51.97
2023-08-05T00:51:10.047Z,51.98
2023-08-05T00:53:38.674Z,52.98
2023-08-05T00:56:05.926Z,52.79
2023-08-05T00:58:34.795Z,51.86
2023-08-05T01:01:02.692Z,51.50
2023-08-05T01:03:31.608Z,51.75
2023-08-05T01:06:00.894Z,51.79
2023-08-05T01:08:29.074Z,52.03
2023-08-05T01:10:56.157Z,52.47
2023-08-05T01:13:23.170Z,52.19
2023-08-05T01:15:50.212Z,51.67
2023-08-05T01:18:18.550Z,52.52
2023-08-05T01:20:49.727Z,52.29
2023-08-05T01:23:38.392Z,53.35
2023-08-05T01:26:06.550Z,53.55
2023-08-05T01:28:37.139Z,53.10
2023-08-05T01:31:05.865Z,53.22
2023-08-05T01:33:34.943Z,53.26
2023-08-05T01:36:04.598Z,53.50
2023-08-05T01:38:31.539Z,53.46
2023-08-05T01:40:59.373Z,52.83
2023-08-05T01:43:26.903Z,53.63
2023-08-05T01:45:54.155Z,53.09
2023-08-05T01:48:21.348Z,52.66
2023-08-05T01:50:49.027Z,53.22
2023-08-05T01:53:16.784Z,52.80
2023-08-05T01:55:43.931Z,54.07
2023-08-05T01:58:11.136Z,55.37
2023-08-05T02:00:38.256Z,55.68
2023-08-05T02:03:05.768Z,55.73
2023-08-05T02:05:32.984Z,56.58
2023-08-05T02:07:59.969Z,57.39
2023-08-05T02:10:27.093Z,58.10
2023-08-05T02:12:54.350Z,57.46
2023-08-05T02:15:21.614Z,57.57
2023-08-05T02:17:48.894Z,59.33
2023-08-05T02:20:17.308Z,59.49
2023-08-05T02:22:44.509Z,59.20
2023-08-05T02:25:12.134Z,60.44
2023-08-05T02:27:39.271Z,61.14
2023-08-05T02:30:07.401Z,61.77
2023-08-05T02:32:34.611Z,60.80
2023-08-05T02:35:01.879Z,60.41
2023-08-05T02:37:31.143Z,61.65
2023-08-05T02:39:58.483Z,61.80
2023-08-05T02:42:25.598Z,62.01
2023-08-05T02:44:52.657Z,62.58
2023-08-05T02:47:19.782Z,61.43
2023-08-05T02:49:46.881Z,61.36
2023-08-05T02:52:13.980Z,60.49
2023-08-05T02:54:41.100Z,60.17
2023-08-05T02:57:08.099Z,58.72
2023-08-05T02:59:35.182Z,58.59
2023-08-05T03:02:02.323Z,60.04
2023-08-05T03:04:29.443Z,60.42
2023-08-05T03:06:56.521Z,61.37
2023-08-05T03:09:23.588Z,61.03
2023-08-05T03:11:50.707Z,61.39
2023-08-05T03:14:17.914Z,60.21
2023-08-05T03:16:44.972Z,60.00
2023-08-05T03:19:17.982Z,60.06
2023-08-05T03:21:45.127Z,59.46
2023-08-05T03:24:12.914Z,59.12
2023-08-05T03:26:42.994Z,58.10
2023-08-05T03:29:12.069Z,57.27
2023-08-05T03:31:39.853Z,57.66
2023-08-05T03:34:08.204Z,57.87
2023-08-05T03:36:37.588Z,59.19
2023-08-05T03:39:06.161Z,60.14
2023-08-05T03:41:34.719Z,59.27
2023-08-05T03:44:05.578Z,58.61
2023-08-05T03:46:32.891Z,57.00
2023-08-05T03:49:01.736Z,56.51
2023-08-05T03:51:28.938Z,54.21
2023-08-05T03:53:57.556Z,55.40
2023-08-05T03:56:28.563Z,55.09
2023-08-05T03:58:58.443Z,54.69
2023-08-05T04:01:27.620Z,55.88
2023-08-05T04:03:55.870Z,55.93
2023-08-05T04:06:26.839Z,54.50
2023-08-05T04:08:55.416Z,53.21
2023-08-05T04:11:22.888Z,53.99
2023-08-05T04:13:54.124Z,53.23
2023-08-05T04:16:23.469Z,52.02
2023-08-05T04:18:50.868Z,52.51
2023-08-05T04:21:17.941Z,52.15
2023-08-05T04:23:48.306Z,52.85
2023-08-05T04:26:15.494Z,52.17
2023-08-05T04:28:42.579Z,53.33
2023-08-05T04:31:09.646Z,52.22
2023-08-05T04:33:36.718Z,50.67
2023-08-05T04:36:03.905Z,51.13
2023-08-05T04:38:31.021Z,51.11
2023-08-05T04:40:59.292Z,50.34
2023-08-05T04:43:26.611Z,47.50
2023-08-05T04:45:55.565Z,46.00
2023-08-05T04:48:22.896Z,45.61
2023-08-05T04:50:49.976Z,44.68
2023-08-05T04:53:17.362Z,44.60
2023-08-05T04:55:44.514Z,43.84
2023-08-05T04:58:12.510Z,43.09
2023-08-05T05:00:40.331Z,41.72
2023-08-05T05:03:09.116Z,43.04
2023-08-05T05:05:37.008Z,41.66
2023-08-05T05:08:04.625Z,42.04
2023-08-05T05:10:31.966Z,41.71
2023-08-05T05:12:59.499Z,41.57
2023-08-05T05:15:27.018Z,42.00
2023-08-05T05:17:54.741Z,43.10
2023-08-05T05:20:30.687Z,42.64
2023-08-05T05:22:58.128Z,42.69
2023-08-05T05:25:25.281Z,41.83
2023-08-05T05:27:52.361Z,42.97
2023-08-05T05:30:19.618Z,42.27
2023-08-05T05:32:46.765Z,42.89
2023-08-05T05:35:15.094Z,42.76
2023-08-05T05:37:42.563Z,43.45
2023-08-05T05:40:12.284Z,42.63
2023-08-05T05:42:40.834Z,43.30
2023-08-05T05:45:08.319Z,43.60
2023-08-05T05:47:37.053Z,43.82
2023-08-05T05:50:04.963Z,44.96
2023-08-05T05:52:32.069Z,44.97
2023-08-05T05:54:59.522Z,46.29
2023-08-05T05:57:27.377Z,45.90
2023-08-05T05:59:54.638Z,46.17
2023-08-05T06:02:21.809Z,45.22
2023-08-05T06:04:49.515Z,46.54
2023-08-05T06:07:16.945Z,47.06
2023-08-05T06:09:44.843Z,46.22
2023-08-05T06:12:12.166Z,46.10
2023-08-05T06:14:39.762Z,46.95
2023-08-05T06:17:06.941Z,46.98
2023-08-05T06:19:34.194Z,47.12
2023-08-05T07:15:49.072Z,52.72
2023-08-05T07:31:39.686Z,52.99
2023-08-05T07:34:09.314Z,52.65
2023-08-05T07:36:37.912Z,53.06
2023-08-05T07:39:07.557Z,51.94
2023-08-05T07:41:34.929Z,52.66
2023-08-05T07:44:02.972Z,52.58
2023-08-05T07:46:37.251Z,53.08
2023-08-05T07:49:05.670Z,53.57
2023-08-05T07:51:32.788Z,53.95
2023-08-05T07:54:00.678Z,54.93
2023-08-05T07:56:27.919Z,54.24
2023-08-05T07:58:55.069Z,53.97
2023-08-05T08:01:24.079Z,54.42
2023-08-05T08:27:21.058Z,53.29
2023-08-05T08:29:48.196Z,52.46
2023-08-05T08:32:15.239Z,52.32
2023-08-05T09:35:00.578Z,47.00
2023-08-05T09:37:27.623Z,47.08
2023-08-05T09:39:54.591Z,45.83
2023-08-05T09:42:27.073Z,45.91
2023-08-05T09:44:58.938Z,47.33
2023-08-05T09:47:31.687Z,45.76
2023-08-05T09:50:06.389Z,46.45
2023-08-05T09:52:34.568Z,46.03
2023-08-05T09:55:08.823Z,43.46
2023-08-05T09:57:36.057Z,41.54
2023-08-05T10:00:09.212Z,42.81
2023-08-05T10:02:36.910Z,41.82
2023-08-05T10:05:04.407Z,40.81
2023-08-05T10:07:31.586Z,40.99
2023-08-05T10:10:00.136Z,42.56
2023-08-05T10:12:32.114Z,42.08
2023-08-05T10:15:01.426Z,42.10
2023-08-05T10:17:29.391Z,42.05
2023-08-05T10:19:56.593Z,42.08
2023-08-05T10:22:25.473Z,42.40
2023-08-05T11:00:57.355Z,34.75
2023-08-05T11:03:46.956Z,36.14
2023-08-05T11:06:15.799Z,35.78
2023-08-05T11:08:43.719Z,35.75
2023-08-05T11:11:15.383Z,35.68
2023-08-05T11:13:45.737Z,36.01
2023-08-05T11:16:16.308Z,36.27
2023-08-05T11:18:45.216Z,36.95
2023-08-05T11:21:19.068Z,38.26
2023-08-05T11:23:47.164Z,38.42
2023-08-05T11:26:14.850Z,39.40
2023-08-05T11:28:48.406Z,38.91
2023-08-05T11:31:28.063Z,38.31
2023-08-05T11:33:55.864Z,37.95
2023-08-05T11:36:27.132Z,38.47
2023-08-05T11:38:58.538Z,38.94
2023-08-05T11:41:27.144Z,38.71
2023-08-05T11:43:55.828Z,39.46
2023-08-05T11:46:40.915Z,39.29
2023-08-05T11:49:16.698Z,39.16
2023-08-05T11:51:52.486Z,39.59
2023-08-05T11:54:30.880Z,39.44
2023-08-05T11:56:58.961Z,37.99
2023-08-05T11:59:49.227Z,37.64
2023-08-05T12:02:19.108Z,38.66
2023-08-05T12:04:48.864Z,38.33
2023-08-05T12:07:21.060Z,39.06
2023-08-05T12:10:11.139Z,36.84
2023-08-05T12:12:43.029Z,37.57
2023-08-05T12:15:13.215Z,38.26
2023-08-05T12:17:45.303Z,36.86
2023-08-05T12:20:12.528Z,37.68
2023-08-05T12:22:39.495Z,37.94
2023-08-05T12:25:07.080Z,38.82
2023-08-05T12:27:34.246Z,38.37
2023-08-05T12:30:01.426Z,38.87
2023-08-05T12:32:29.465Z,39.21
2023-08-05T12:34:56.458Z,39.09
2023-08-05T12:37:23.510Z,38.03
2023-08-05T12:39:50.500Z,37.37
2023-08-05T12:42:17.620Z,38.26
2023-08-05T12:44:44.721Z,38.76
2023-08-05T12:47:11.803Z,38.79
2023-08-05T12:49:40.113Z,38.41
2023-08-05T12:52:07.808Z,38.20
2023-08-05T12:54:34.897Z,39.38
2023-08-05T12:57:02.131Z,39.29
2023-08-05T12:59:29.267Z,39.19
2023-08-05T13:01:56.311Z,39.17
2023-08-05T13:04:23.427Z,38.45
2023-08-05T13:06:50.545Z,38.69
2023-08-05T13:09:19.308Z,38.84
2023-08-05T13:11:46.890Z,37.22
2023-08-05T13:14:14.571Z,38.54
2023-08-05T13:16:42.256Z,38.64
2023-08-05T13:19:09.663Z,37.01
2023-08-05T13:21:37.640Z,37.21
2023-08-05T13:24:04.845Z,38.29
2023-08-05T13:26:32.024Z,38.91
2023-08-05T13:28:59.170Z,37.65
2023-08-05T13:31:26.429Z,38.97
2023-08-05T13:33:54.009Z,37.92
2023-08-05T13:36:21.668Z,37.46
2023-08-05T13:38:50.067Z,37.38
2023-08-05T13:41:17.871Z,37.50
2023-08-05T13:43:45.003Z,37.76
2023-08-05T13:46:12.403Z,37.88
2023-08-05T13:48:39.880Z,37.84
2023-08-05T13:51:09.095Z,37.73
2023-08-05T13:53:37.179Z,37.67
2023-08-05T13:56:05.201Z,37.76
2023-08-05T13:58:32.816Z,37.65
2023-08-05T14:01:02.690Z,38.22
2023-08-05T14:03:30.115Z,37.43
2023-08-05T14:05:58.902Z,37.67
2023-08-05T14:08:30.545Z,37.22
2023-08-05T14:10:57.624Z,37.83
2023-08-05T14:13:24.760Z,37.69
2023-08-05T14:15:53.565Z,37.88
2023-08-05T14:18:21.718Z,37.45
2023-08-05T14:20:49.299Z,37.40
2023-08-05T14:23:16.849Z,37.06
2023-08-05T14:25:46.846Z,37.56
2023-08-05T14:28:14.178Z,37.74
2023-08-05T14:30:42.221Z,37.19
2023-08-05T14:33:09.770Z,37.49
2023-08-05T14:35:37.354Z,36.77
2023-08-05T14:38:05.331Z,36.23
2023-08-05T14:40:34.778Z,36.77
2023-08-05T14:43:03.003Z,36.73
2023-08-05T14:45:31.008Z,36.30
2023-08-05T14:47:59.111Z,36.65
2023-08-05T14:50:26.406Z,36.60
2023-08-05T14:52:53.444Z,36.46
2023-08-05T14:55:20.712Z,37.61
2023-08-05T14:57:49.209Z,37.03
2023-08-05T15:00:16.927Z,36.68
2023-08-05T15:02:44.060Z,36.60
2023-08-05T15:05:11.214Z,35.97
2023-08-05T15:07:38.226Z,35.89
2023-08-05T15:10:05.786Z,36.27
2023-08-05T15:12:33.171Z,35.69
2023-08-05T15:15:00.225Z,35.33
2023-08-05T15:17:27.692Z,35.63
2023-08-05T15:19:55.129Z,35.71
2023-08-05T15:22:22.541Z,35.61
2023-08-05T15:24:49.511Z,35.42
2023-08-05T15:27:16.510Z,35.48
2023-08-05T15:29:43.634Z,35.30
2023-08-05T15:32:11.063Z,35.22
2023-08-05T15:34:40.019Z,35.54
2023-08-05T15:37:07.374Z,34.57
2023-08-05T15:39:34.538Z,35.21
2023-08-05T15:42:02.739Z,36.16
2023-08-05T15:44:35.263Z,36.82
2023-08-05T15:47:05.507Z,36.91
2023-08-05T15:49:32.621Z,36.91
2023-08-05T15:51:59.600Z,37.18
2023-08-05T15:54:27.423Z,36.61
2023-08-05T15:56:54.398Z,37.21
2023-08-05T15:59:21.545Z,37.04
2023-08-05T16:01:48.610Z,37.87
2023-08-05T16:04:15.689Z,38.06
2023-08-05T16:06:44.342Z,38.14
2023-08-05T16:09:11.790Z,37.99
2023-08-05T16:11:38.856Z,38.00
2023-08-05T16:14:05.887Z,37.81
2023-08-05T16:16:34.191Z,36.69
2023-08-05T16:19:02.074Z,36.62
2023-08-05T16:21:29.485Z,36.42
2023-08-05T16:23:58.136Z,36.02
2023-08-05T16:26:27.260Z,36.29
2023-08-05T16:28:54.740Z,36.86
2023-08-05T16:31:23.702Z,37.50
2023-08-05T16:33:51.043Z,37.72
2023-08-05T16:36:18.173Z,38.56
2023-08-05T16:38:45.598Z,39.35
2023-08-05T16:41:13.218Z,38.72
2023-08-05T16:43:40.862Z,39.48
2023-08-05T16:46:08.621Z,39.17
2023-08-05T16:48:36.102Z,39.81
2023-08-05T16:51:06.688Z,40.71
2023-08-05T16:53:34.490Z,40.41
2023-08-05T16:56:05.841Z,40.78
2023-08-05T16:58:32.892Z,40.61
2023-08-05T17:01:00.054Z,41.02
2023-08-05T17:03:27.021Z,39.90
2023-08-05T17:05:54.085Z,39.85
2023-08-05T17:08:21.828Z,39.16
2023-08-05T17:10:48.982Z,39.60
2023-08-05T17:13:16.029Z,39.66
2023-08-05T17:15:47.102Z,38.86
2023-08-05T17:18:14.914Z,39.34
2023-08-05T17:20:42.973Z,40.39
2023-08-05T17:23:10.405Z,41.23
2023-08-05T17:25:41.811Z,41.46
2023-08-05T17:28:09.640Z,40.97
2023-08-05T17:30:37.681Z,40.88
2023-08-05T17:33:05.804Z,40.61
2023-08-05T17:35:34.539Z,42.18
2023-08-05T17:38:03.169Z,41.61
2023-08-05T17:40:31.190Z,41.83
2023-08-05T17:42:59.342Z,41.66
2023-08-05T17:45:26.425Z,41.73
2023-08-05T17:47:53.568Z,41.76
2023-08-05T17:50:20.648Z,42.53
2023-08-05T17:52:47.657Z,42.70
2023-08-05T17:55:14.835Z,42.67
2023-08-05T17:57:42.009Z,42.92
2023-08-05T18:00:09.741Z,43.10
2023-08-05T18:02:37.178Z,43.57
2023-08-05T18:05:04.673Z,44.62
2023-08-05T18:07:31.885Z,44.82
2023-08-05T18:09:59.685Z,45.80
2023-08-05T18:12:26.876Z,45.88
2023-08-05T18:14:53.908Z,46.49
2023-08-05T18:17:20.909Z,46.72
2023-08-05T18:19:48.007Z,47.07
2023-08-05T18:22:15.006Z,47.18
2023-08-05T18:24:42.282Z,47.79
2023-08-05T18:27:09.349Z,48.38
2023-08-05T18:29:36.580Z,48.48
2023-08-05T18:32:04.037Z,49.13
2023-08-05T18:34:31.193Z,49.76
2023-08-05T18:36:58.411Z,49.67
2023-08-05T18:39:25.806Z,49.24
2023-08-05T18:41:53.032Z,49.50
2023-08-05T18:44:20.310Z,50.02
2023-08-05T18:46:47.481Z,49.87
2023-08-05T18:49:14.647Z,50.43
2023-08-05T18:51:41.677Z,50.31
2023-08-05T18:54:09.235Z,50.73
2023-08-05T18:56:36.678Z,50.70
2023-08-05T18:59:03.803Z,51.39
2023-08-05T19:01:31.112Z,51.97
2023-08-05T19:03:58.277Z,51.77
2023-08-05T19:06:25.401Z,52.41
2023-08-05T19:08:52.368Z,52.66
2023-08-05T19:11:19.440Z,52.54
2023-08-05T19:13:46.531Z,53.02
2023-08-05T19:16:13.707Z,53.30
2023-08-05T19:18:41.403Z,54.05
2023-08-05T19:21:09.521Z,53.87
2023-08-05T19:23:37.623Z,55.02
2023-08-05T19:26:08.723Z,55.69
2023-08-05T19:28:35.812Z,56.02
2023-08-05T19:31:07.492Z,56.29
2023-08-05T19:33:35.531Z,57.39
2023-08-05T19:36:16.875Z,57.68
2023-08-05T19:38:45.404Z,57.97
2023-08-05T19:41:12.751Z,58.98
2023-08-05T19:43:41.182Z,60.03
2023-08-05T19:46:10.723Z,59.50
2023-08-05T19:48:38.721Z,60.62
2023-08-05T19:53:37.697Z,61.82
2023-08-05T19:56:04.886Z,62.21
2023-08-05T19:58:32.094Z,62.61
2023-08-05T20:00:59.272Z,62.74
2023-08-05T20:03:26.522Z,62.57
2023-08-05T20:05:55.127Z,63.25
2023-08-05T20:08:24.045Z,64.17
2023-08-05T20:10:51.191Z,63.68
2023-08-05T20:13:18.465Z,64.68
2023-08-05T20:15:45.576Z,65.34
2023-08-05T20:18:12.995Z,64.93
2023-08-05T20:20:40.086Z,65.45
2023-08-05T20:23:07.204Z,66.58
2023-08-05T20:25:35.945Z,66.47
2023-08-05T20:28:03.417Z,65.96
2023-08-05T20:30:30.553Z,67.05
2023-08-05T20:32:57.632Z,67.53
2023-08-05T20:35:24.709Z,68.18
2023-08-05T20:37:51.818Z,68.90
2023-08-05T20:40:18.985Z,68.83
2023-08-05T20:42:46.726Z,69.66
2023-08-05T20:45:13.789Z,69.50
2023-08-05T20:47:40.948Z,69.80
2023-08-05T20:50:10.620Z,70.74
2023-08-05T20:52:37.590Z,71.29
2023-08-05T20:55:05.112Z,72.84
2023-08-05T20:57:32.307Z,72.81
2023-08-05T20:59:59.423Z,72.92
2023-08-05T21:02:26.653Z,73.67
2023-08-05T21:04:56.221Z,72.68
2023-08-05T21:07:23.224Z,72.52
2023-08-05T21:09:50.358Z,72.46
2023-08-05T21:12:18.751Z,72.23
2023-08-05T21:14:45.950Z,72.72
2023-08-05T21:17:13.250Z,71.37
2023-08-05T21:19:40.357Z,70.21
2023-08-05T21:22:07.581Z,70.79
2023-08-05T21:24:35.918Z,70.20
2023-08-05T21:27:03.384Z,70.35
2023-08-05T21:29:31.657Z,70.11
2023-08-05T21:31:58.829Z,71.12
2023-08-05T21:34:25.842Z,70.40
2023-08-05T21:36:52.928Z,71.00
2023-08-05T21:39:20.068Z,71.22
2023-08-05T21:41:47.092Z,71.31
2023-08-05T21:44:14.131Z,70.62
2023-08-05T21:46:41.425Z,71.15
2023-08-05T21:49:08.618Z,71.41
2023-08-05T21:51:35.659Z,72.82
2023-08-05T21:54:04.762Z,72.55
2023-08-05T21:56:32.351Z,73.42
2023-08-05T21:58:59.332Z,73.07
2023-08-05T22:01:28.866Z,72.70
2023-08-05T22:03:55.913Z,73.03
2023-08-05T22:06:22.993Z,72.79
2023-08-05T22:08:50.240Z,73.65
2023-08-05T22:11:17.300Z,73.44
2023-08-05T22:13:44.477Z,73.97
2023-08-05T22:16:11.666Z,73.32
2023-08-05T22:18:39.001Z,73.75
2023-08-05T22:21:06.296Z,74.87
2023-08-05T22:23:33.450Z,74.89
2023-08-05T22:26:06.491Z,74.42
2023-08-05T22:28:33.797Z,73.78
2023-08-05T22:31:00.979Z,74.51
2023-08-05T22:33:28.068Z,73.44
2023-08-05T22:35:55.081Z,74.43
2023-08-05T22:38:22.315Z,74.05
2023-08-05T22:40:49.504Z,73.25
2023-08-05T22:43:16.622Z,73.34
2023-08-05T22:45:43.676Z,73.96
2023-08-05T22:48:10.795Z,72.60
2023-08-05T22:50:43.686Z,73.10
2023-08-05T22:53:10.655Z,73.71
2023-08-05T22:55:37.733Z,74.20
2023-08-05T22:58:04.886Z,77.01
2023-08-05T23:00:32.021Z,76.58
2023-08-05T23:02:59.248Z,76.97
2023-08-05T23:05:26.456Z,77.73
2023-08-05T23:07:53.684Z,77.35
2023-08-05T23:10:20.802Z,76.31
2023-08-05T23:12:47.855Z,76.37
2023-08-05T23:15:15.110Z,76.78
2023-08-05T23:17:43.770Z,75.47
2023-08-05T23:20:11.195Z,76.02
2023-08-05T23:22:38.536Z,76.77
2023-08-05T23:25:06.160Z,77.76
2023-08-05T23:27:33.179Z,77.29
2023-08-05T23:30:00.278Z,77.48
2023-08-05T23:32:27.440Z,76.30
2023-08-05T23:34:54.574Z,75.70
2023-08-05T23:37:21.670Z,74.43
2023-08-05T23:39:48.842Z,73.63
2023-08-05T23:42:16.099Z,75.70
2023-08-05T23:44:43.218Z,76.07
2023-08-05T23:47:10.275Z,76.68
2023-08-05T23:49:37.374Z,75.16
2023-08-05T23:52:04.936Z,75.54
2023-08-05T23:54:31.884Z,74.80
2023-08-05T23:56:59.041Z,74.42
2023-08-05T23:59:25.984Z,74.22
